Huvudsida
METAR-TAF:

METAR-TAF

Flygplatser :

Halmstad City Airport

Halmstad, Sverige

latitud: 56-41N, longitud: 012-50E, höjd: 30 m

Aktuellt väderrapport

Denna rapport gjordes för 18 minuter sedan, klockan 18:50 UTC
Vind 9 kt från väst
Temperatur 13°C
Fuktighet 88%
Tryck 1020 hPa
Sikt 10 km eller mer
Brutna moln på en höjd av 1100 ft

METAR: ESMT 201850Z 27009KT 9999 BKN011 13/11 Q1020

Tid: 21:08 (19:08 UTC)

Väderprognos

Denna rapport gjordes för 58 minuter sedan, klockan 18:10 UTC
Prognos gäller från 20 kl. 18 UTC till 20 kl. 21 UTC
Vind 12 kt från väst/nordväst
Sikt 10 km eller mer
Brutna moln på en höjd av 2000 ft
Temporärt
från 20 kl. 18 UTC till 20 kl. 21 UTC
Sikt: 4000 m
Brutna moln på en höjd av 1200 ft
lätt duggregn

TAF: ESMT 201810Z 2018/2021 29012KT 9999 BKN020 TEMPO 2018/2021 4000 -DZ BKN012

Aktuella väderrapporter och prognoser från 4000 flygplatser (METAR- och TAF-rapporter).

De tillgängliga stationerna syns som gula och röda prickar på kartan.

För musen över prickarna för att se namnen på stationerna.

Klicka sedan för att få väderrapporter och prognoser.

För att ändra kartan: Klicka på de gröna knapparna med ett svart kors på för att zooma in; den gröna knappen med ett streck på för att zooma ut; eller på de gröna pilarna för angränsande kartor.


METAR-TAF: